Ameghino, Argentina
Current Conditions -  °F | °C
As of 3:00 AM on Thursday 29 Jan 2015 (Local Time) from SAOC Reporting Station
Scattered Clouds Scattered Clouds  
Wind Chill: 19°   Ceiling: Unl
Heat Index: 19°   Visibility: 6mi
Dew Point: 17°   Wind: 6mph
Humidity: 88%   Direction: 50°NE
Pressure: 30.03"   Gusts: NA
Location:  34.83°S, 62.45°W
Report Text: SAOC 290600Z 05005KT 9999 FEW030 SCT05019/17 Q1017
Loading
Personal Weather Stations






























Interactive Weather Map New forecast layout! Learn more

10-Day Weather Forecast

Advertisements
Track Severe Weather on mobile